Time;durP1;ratioP1;P1;durP2;ratioP2;P2;SDS_P1;SDS_P2;PMS_P1;PMS_P2;Temp;Humidity;BMP_temperature;BMP_pressure;BME280_temperature;BME280_humidity;BME280_pressure;Samples;Min_cycle;Max_cycle;Signal;HPM_P1;HPM_P2
2021/04/18 00:02:16;;;;;;;8.27;5.97;;;;;;;3.97;77.00;101874.09;5048215;28;20505;-84
2021/04/18 00:04:42;;;;;;;9.60;6.10;;;;;;;3.87;77.62;101888.91;5031079;28;20132;-79
2021/04/18 00:07:07;;;;;;;10.65;6.78;;;;;;;3.83;77.75;101881.16;5031250;28;20453;-81
2021/04/18 00:09:33;;;;;;;9.35;5.95;;;;;;;3.83;77.69;101881.16;5047761;28;20041;-83
2021/04/18 00:11:58;;;;;;;11.05;6.85;;;;;;;3.83;77.95;101878.50;5045916;28;20044;-79
2021/04/18 00:14:25;;;;;;;10.10;6.00;;;;;;;3.81;78.27;101876.88;5031499;28;20040;-84
2021/04/18 00:16:51;;;;;;;13.75;6.43;;;;;;;3.78;78.23;101872.59;5029685;28;20041;-82
2021/04/18 00:19:16;;;;;;;10.98;6.43;;;;;;;3.75;78.34;101878.09;5048624;28;20535;-84
2021/04/18 00:21:42;;;;;;;10.75;6.50;;;;;;;3.71;78.83;101873.06;5031094;28;20041;-82
2021/04/18 00:24:07;;;;;;;10.65;6.28;;;;;;;3.70;79.06;101874.88;5046633;28;20108;-80
2021/04/18 00:26:33;;;;;;;12.00;6.88;;;;;;;3.68;79.03;101866.13;5015113;28;20037;-84
2021/04/18 00:28:58;;;;;;;11.35;6.70;;;;;;;3.69;79.63;101867.84;5047692;28;20512;-81
2021/04/18 00:31:24;;;;;;;10.52;7.07;;;;;;;3.69;79.72;101867.00;5050173;28;20049;-81
2021/04/18 00:33:49;;;;;;;12.80;6.70;;;;;;;3.65;79.92;101857.50;5046807;28;20406;-83
2021/04/18 00:36:15;;;;;;;11.52;7.22;;;;;;;3.64;79.92;101859.31;5021242;28;20500;-84
2021/04/18 00:38:40;;;;;;;15.77;6.60;;;;;;;3.64;80.10;101859.31;5048187;28;20044;-81
2021/04/18 00:41:06;;;;;;;9.43;6.38;;;;;;;3.63;80.19;101856.78;5050170;28;20045;-83
2021/04/18 00:43:31;;;;;;;13.00;7.15;;;;;;;3.60;79.80;101857.81;5010657;28;20041;-84
2021/04/18 00:45:56;;;;;;;12.07;7.13;;;;;;;3.54;80.28;101851.06;5050508;28;20049;-82
2021/04/18 00:48:22;;;;;;;13.93;7.03;;;;;;;3.52;80.93;101852.09;5034843;28;20486;-78
2021/04/18 00:50:47;;;;;;;13.15;7.18;;;;;;;3.46;81.02;101850.66;5037329;28;20060;-83
2021/04/18 00:53:13;;;;;;;14.57;7.07;;;;;;;3.44;81.51;101846.41;5047645;28;20374;-84
2021/04/18 00:55:41;;;;;;;13.57;6.78;;;;;;;3.39;81.98;101846.66;5031903;28;20413;-82
2021/04/18 00:58:08;;;;;;;11.70;7.10;;;;;;;3.35;82.04;101845.16;5013510;28;20033;-81
2021/04/18 01:00:37;;;;;;;9.70;6.80;;;;;;;3.29;82.19;101841.06;5049177;28;20127;-81
2021/04/18 01:03:06;;;;;;;;;;;;;;;3.27;82.73;101837.63;5044316;28;20037;-84
2021/04/18 01:05:32;;;;;;;12.68;7.03;;;;;;;3.15;82.69;101830.41;5031790;28;19927;-79
2021/04/18 01:07:57;;;;;;;12.90;7.15;;;;;;;3.14;83.56;101834.88;5045543;28;20072;-81
2021/04/18 01:10:23;;;;;;;11.85;7.22;;;;;;;3.14;83.26;101834.88;5050714;28;20126;-80
2021/04/18 01:12:49;;;;;;;9.60;6.88;;;;;;;3.15;83.31;101836.56;5048432;28;20048;-78
2021/04/18 01:15:15;;;;;;;12.02;7.15;;;;;;;3.11;83.86;101834.22;5042997;28;20363;-79
2021/04/18 01:17:42;;;;;;;13.38;7.43;;;;;;;3.05;84.15;101823.94;5038099;28;20064;-82
2021/04/18 01:20:11;;;;;;;13.60;7.65;;;;;;;3.06;84.14;101831.81;5016009;28;20079;-82
2021/04/18 01:22:36;;;;;;;;;;;;;;;3.02;84.42;101830.31;5058401;28;20045;-81
2021/04/18 01:25:03;;;;;;;13.18;7.40;;;;;;;2.94;85.42;101816.63;5037205;28;19923;-80
2021/04/18 01:27:28;;;;;;;11.63;6.97;;;;;;;2.92;85.21;101823.81;5046394;28;20045;-79
2021/04/18 01:29:54;;;;;;;13.15;7.80;;;;;;;2.93;85.02;101820.22;5037845;28;20041;-84
2021/04/18 01:32:21;;;;;;;14.05;7.63;;;;;;;3.00;85.70;101823.38;5058749;28;20087;-84
2021/04/18 01:34:47;;;;;;;15.85;7.30;;;;;;;3.00;85.37;101820.72;5036491;28;20044;-76
2021/04/18 01:37:14;;;;;;;10.75;7.40;;;;;;;2.92;85.47;101816.72;5043910;28;20037;-84
2021/04/18 01:39:39;;;;;;;13.55;8.20;;;;;;;2.94;85.67;101822.78;5039147;28;20392;-79
2021/04/18 01:42:06;;;;;;;19.67;7.25;;;;;;;2.90;86.26;101818.59;5052769;28;20124;-84
2021/04/18 01:44:31;;;;;;;13.77;7.60;;;;;;;3.02;85.81;101819.69;5054086;28;20041;-83
2021/04/18 01:46:57;;;;;;;12.43;7.32;;;;;;;3.05;85.71;101819.50;5017616;28;20504;-82
2021/04/18 01:49:22;;;;;;;13.88;7.50;;;;;;;2.97;85.64;101816.44;5018435;28;20057;-83
2021/04/18 01:51:48;;;;;;;17.15;8.02;;;;;;;2.97;86.58;101815.59;5037083;28;20041;-82
2021/04/18 01:54:13;;;;;;;16.33;8.88;;;;;;;3.00;85.88;101810.13;5021279;28;20136;-83
2021/04/18 01:56:39;;;;;;;16.63;8.40;;;;;;;2.97;86.15;101805.84;5053057;28;20440;-83
2021/04/18 01:59:04;;;;;;;17.83;8.82;;;;;;;2.96;86.11;101805.91;5052141;28;20497;-80
2021/04/18 02:01:30;;;;;;;13.60;8.43;;;;;;;3.00;85.18;101810.97;5053688;28;20120;-82
2021/04/18 02:03:56;;;;;;;13.85;7.80;;;;;;;2.92;85.42;101811.41;5050786;28;20071;-81
2021/04/18 02:06:21;;;;;;;13.63;8.00;;;;;;;2.91;85.79;101809.72;5036992;28;20045;-84
2021/04/18 02:08:53;;;;;;;14.40;8.52;;;;;;;2.84;86.48;101816.28;5050756;28;20044;-83
2021/04/18 02:11:23;;;;;;;12.63;8.38;;;;;;;2.79;86.88;101817.50;5032284;28;20033;-78
2021/04/18 02:13:48;;;;;;;14.60;8.93;;;;;;;2.75;86.65;101822.13;5039422;28;20033;-81
2021/04/18 02:16:14;;;;;;;14.93;8.55;;;;;;;2.75;86.28;101822.13;5035152;28;20373;-79
2021/04/18 02:18:39;;;;;;;15.05;9.13;;;;;;;2.67;86.10;101819.06;5049902;28;20045;-82
2021/04/18 02:21:06;;;;;;;12.65;7.93;;;;;;;2.60;86.86;101813.28;5030572;28;20045;-80
2021/04/18 02:23:32;;;;;;;12.95;7.85;;;;;;;2.54;86.83;101818.09;5035764;28;20037;-80
2021/04/18 02:25:59;;;;;;;12.30;8.48;;;;;;;2.45;87.22;101806.22;5037307;28;20048;-80
2021/04/18 02:28:29;;;;;;;14.43;8.13;;;;;;;2.42;87.50;101811.69;5041417;28;20057;-78
2021/04/18 02:30:54;;;;;;;12.95;7.88;;;;;;;2.36;88.13;101807.59;5027374;28;20416;-78
2021/04/18 02:33:20;;;;;;;14.90;8.15;;;;;;;2.30;88.22;101810.56;5016334;28;20029;-80
2021/04/18 02:35:45;;;;;;;14.77;8.40;;;;;;;2.32;87.94;101808.69;5040801;28;20036;-82
2021/04/18 02:38:10;;;;;;;11.48;7.57;;;;;;;2.39;87.87;101807.41;5044236;28;20069;-84
2021/04/18 02:40:38;;;;;;;13.52;7.82;;;;;;;2.37;87.98;101809.28;5051988;28;20059;-83
2021/04/18 02:43:03;;;;;;;14.45;8.60;;;;;;;2.34;88.06;101814.75;5029601;28;20084;-79
2021/04/18 02:45:29;;;;;;;13.60;7.97;;;;;;;2.39;87.68;101815.38;5026519;28;20143;-82
2021/04/18 02:47:56;;;;;;;11.23;7.57;;;;;;;2.35;88.13;101808.50;5047906;28;20401;-79
2021/04/18 02:50:21;;;;;;;13.07;7.85;;;;;;;2.34;87.78;101808.63;5044354;28;20053;-84
2021/04/18 02:52:47;;;;;;;11.07;7.80;;;;;;;2.34;87.69;101811.25;5033315;28;20044;-80
2021/04/18 02:55:13;;;;;;;13.07;8.18;;;;;;;2.33;87.79;101810.41;5031352;28;20047;-81
2021/04/18 02:57:38;;;;;;;15.90;8.52;;;;;;;2.34;88.74;101811.25;5034198;28;20120;-81
2021/04/18 03:00:04;;;;;;;14.60;8.40;;;;;;;2.44;88.43;101805.34;5032150;28;20036;-80
2021/04/18 03:02:31;;;;;;;16.42;8.80;;;;;;;2.47;89.23;101799.91;5050143;28;20052;-84
2021/04/18 03:04:59;;;;;;;14.05;8.32;;;;;;;2.56;88.46;101803.81;5049767;28;20040;-85
2021/04/18 03:07:25;;;;;;;12.45;7.82;;;;;;;2.59;87.59;101805.41;5051290;28;20053;-85
2021/04/18 03:09:51;;;;;;;13.15;8.68;;;;;;;2.67;88.57;101811.97;5032035;28;20444;-84
2021/04/18 03:12:16;;;;;;;13.98;8.77;;;;;;;2.71;89.16;101807.38;5016512;28;20037;-85
2021/04/18 03:14:42;;;;;;;20.20;9.48;;;;;;;2.65;91.32;101800.63;5032711;28;20041;-81
2021/04/18 03:17:07;;;;;;;19.13;10.90;;;;;;;2.76;90.61;101797.31;5000413;28;20071;-82
2021/04/18 03:19:32;;;;;;;16.70;10.15;;;;;;;2.89;90.95;101806.28;5031056;28;20041;-77
2021/04/18 03:21:59;;;;;;;20.73;11.38;;;;;;;3.00;90.63;101807.47;5045128;28;20064;-79
2021/04/18 03:24:24;;;;;;;23.63;11.20;;;;;;;3.07;90.14;101808.78;5030965;28;20052;-80
2021/04/18 03:26:51;;;;;;;19.98;12.00;;;;;;;3.14;89.48;101800.41;5029583;28;20510;-80
2021/04/18 03:29:17;;;;;;;21.60;10.80;;;;;;;3.07;91.45;101800.84;5031784;28;20090;-83
2021/04/18 03:31:43;;;;;;;19.05;11.70;;;;;;;3.13;90.66;101803.13;5046532;28;20053;-77
2021/04/18 03:34:11;;;;;;;22.13;12.07;;;;;;;3.23;90.62;101806.94;5031315;28;20037;-78
2021/04/18 03:36:38;;;;;;;18.80;11.82;;;;;;;3.21;90.55;101806.19;5047318;28;20056;-81
2021/04/18 03:39:04;;;;;;;23.15;13.48;;;;;;;3.22;90.53;101805.22;5020201;28;20052;-80
2021/04/18 03:41:30;;;;;;;18.45;12.43;;;;;;;3.23;90.94;101806.09;5030584;28;20381;-79
2021/04/18 03:43:57;;;;;;;20.10;12.80;;;;;;;3.19;91.94;101805.41;5049055;28;20159;-78
2021/04/18 03:46:22;;;;;;;23.13;13.70;;;;;;;3.16;93.05;101805.59;5040803;28;20040;-81
2021/04/18 03:48:48;;;;;;;22.95;11.93;;;;;;;3.24;91.66;101802.50;5045339;28;20389;-86
2021/04/18 03:51:14;;;;;;;24.85;13.13;;;;;;;3.26;92.43;101811.22;5033272;28;20037;-86
2021/04/18 03:53:40;;;;;;;22.70;13.77;;;;;;;3.29;92.44;101811.03;5031006;28;20490;-80
2021/04/18 03:56:06;;;;;;;24.15;13.70;;;;;;;3.29;91.33;101811.88;5045380;28;20053;-80
2021/04/18 03:58:31;;;;;;;24.23;14.05;;;;;;;3.29;92.08;101814.53;5051018;28;20045;-80
2021/04/18 04:00:58;;;;;;;23.73;14.63;;;;;;;3.30;91.23;101808.28;5028094;28;20409;-80
2021/04/18 04:03:23;;;;;;;24.20;13.38;;;;;;;3.19;93.99;101802.75;5033899;28;20486;-82
2021/04/18 04:05:49;;;;;;;24.73;14.55;;;;;;;3.15;95.01;101796.78;5035335;28;20056;-80
2021/04/18 04:08:14;;;;;;;20.35;13.57;;;;;;;3.21;92.74;101787.59;5019127;28;20042;-79
2021/04/18 04:10:40;;;;;;;25.40;13.77;;;;;;;3.20;93.95;101795.69;5034603;28;20049;-81
2021/04/18 04:13:05;;;;;;;22.67;15.07;;;;;;;3.23;93.10;101799.00;5028139;28;20045;-81
2021/04/18 04:15:30;;;;;;;26.95;15.52;;;;;;;3.24;93.22;101808.66;5031295;28;20706;-82
2021/04/18 04:17:56;;;;;;;25.75;15.18;;;;;;;3.25;93.51;101798.88;5030933;28;20067;-81
2021/04/18 04:20:21;;;;;;;22.98;15.25;;;;;;;3.25;92.36;101799.75;5042482;28;20045;-80
2021/04/18 04:22:46;;;;;;;27.30;17.25;;;;;;;3.23;93.19;101803.44;5034632;28;20045;-82
2021/04/18 04:25:13;;;;;;;27.92;17.70;;;;;;;3.19;93.70;101800.09;5039112;28;20106;-83
2021/04/18 04:27:41;;;;;;;26.85;16.65;;;;;;;3.15;93.48;101799.44;5040540;28;20036;-84
2021/04/18 04:30:07;;;;;;;27.88;17.10;;;;;;;3.12;94.70;101807.59;5046615;28;20041;-79
2021/04/18 04:32:33;;;;;;;25.05;17.17;;;;;;;3.12;93.54;101815.53;5036614;28;20041;-82
2021/04/18 04:35:00;;;;;;;28.52;16.88;;;;;;;3.10;94.10;101811.25;5031625;28;20068;-83
2021/04/18 04:37:25;;;;;;;27.10;17.88;;;;;;;3.05;93.78;101813.34;5049657;28;20057;-81
2021/04/18 04:39:58;;;;;;;28.48;18.05;;;;;;;3.04;94.61;101811.63;5038846;28;20041;-83
2021/04/18 04:42:23;;;;;;;27.63;18.23;;;;;;;2.94;96.04;101806.03;5046304;28;20106;-79
2021/04/18 04:44:49;;;;;;;32.47;17.85;;;;;;;2.84;97.91;101813.66;5045039;28;20041;-79
2021/04/18 04:47:14;;;;;;;25.40;18.83;;;;;;;2.90;96.37;101810.63;5028295;28;20049;-78
2021/04/18 04:49:39;;;;;;;28.65;19.70;;;;;;;2.96;95.30;101800.63;5047070;28;20493;-79
2021/04/18 04:52:09;;;;;;;35.40;20.27;;;;;;;2.92;95.53;101811.41;5027812;28;20044;-82
2021/04/18 04:54:34;;;;;;;;;;;;;;;2.93;96.22;101805.19;5017172;28;20052;-78
2021/04/18 04:56:59;;;;;;;27.27;18.25;;;;;;;2.85;96.49;101806.53;5041958;28;19917;-78
2021/04/18 04:59:25;;;;;;;28.42;19.00;;;;;;;2.86;96.20;101797.66;5037955;28;20501;-79
2021/04/18 05:01:52;;;;;;;34.40;21.25;;;;;;;2.89;96.51;101800.13;5017731;28;20041;-79
2021/04/18 05:04:18;;;;;;;30.58;20.40;;;;;;;2.87;96.86;101797.56;5044961;28;20139;-82
2021/04/18 05:06:43;;;;;;;37.28;22.38;;;;;;;2.91;97.36;101800.91;5055780;28;20067;-77
2021/04/18 05:09:08;;;;;;;30.52;21.60;;;;;;;2.87;97.70;101789.59;5050900;28;20947;-80
2021/04/18 05:11:34;;;;;;;32.63;20.25;;;;;;;2.90;96.52;101800.03;5047330;28;20052;-86
2021/04/18 05:13:59;;;;;;;33.22;21.52;;;;;;;2.87;97.78;101802.84;5050957;28;20045;-82
2021/04/18 05:16:25;;;;;;;30.73;22.27;;;;;;;2.93;97.09;101804.31;5049526;28;20076;-79
2021/04/18 05:18:52;;;;;;;37.30;22.90;;;;;;;2.97;97.11;101811.16;5032856;28;20390;-79
2021/04/18 05:21:18;;;;;;;36.50;23.42;;;;;;;3.01;97.52;101803.84;5031265;28;20049;-80
2021/04/18 05:23:44;;;;;;;34.83;22.70;;;;;;;3.02;97.32;101809.09;5043354;28;20389;-84
2021/04/18 05:26:09;;;;;;;37.75;24.08;;;;;;;3.04;97.82;101811.63;5053928;28;20052;-78
2021/04/18 05:28:35;;;;;;;43.28;25.77;;;;;;;3.07;98.36;101811.44;5052442;28;20041;-80
2021/04/18 05:31:01;;;;;;;36.88;23.27;;;;;;;3.09;97.90;101818.38;5030069;28;20490;-83
2021/04/18 05:33:27;;;;;;;41.28;24.42;;;;;;;3.12;98.26;101820.84;5049633;28;20059;-80
2021/04/18 05:35:52;;;;;;;39.20;25.08;;;;;;;3.17;98.45;101821.44;5046910;28;20504;-81
2021/04/18 05:38:18;;;;;;;37.40;23.98;;;;;;;3.19;98.00;101816.00;5044537;28;20119;-82
2021/04/18 05:40:44;;;;;;;34.83;24.35;;;;;;;3.24;98.41;101818.41;5030708;28;20388;-81
2021/04/18 05:43:11;;;;;;;39.65;24.52;;;;;;;3.23;99.67;101806.94;5054146;28;20041;-80
2021/04/18 05:45:37;;;;;;;37.72;26.02;;;;;;;3.29;99.09;101808.38;5049295;28;20052;-84
2021/04/18 05:48:03;;;;;;;38.22;26.63;;;;;;;3.31;98.90;101810.00;5048103;28;20033;-80
2021/04/18 05:50:31;;;;;;;34.40;24.52;;;;;;;3.36;98.71;101805.25;5026607;28;20503;-78
2021/04/18 05:52:57;;;;;;;38.13;24.48;;;;;;;3.39;97.45;101810.41;5031390;28;20420;-79
2021/04/18 05:55:27;;;;;;;36.72;23.60;;;;;;;3.38;99.30;101805.16;5034428;28;20087;-81
2021/04/18 05:57:52;;;;;;;40.17;24.90;;;;;;;3.40;99.60;101813.91;5042751;28;20071;-81
2021/04/18 06:00:18;;;;;;;35.42;25.48;;;;;;;3.44;98.73;101806.59;5034576;28;20486;-80
2021/04/18 06:02:45;;;;;;;35.60;25.67;;;;;;;3.44;99.31;101818.06;5033113;28;20087;-81
2021/04/18 06:05:12;;;;;;;46.42;26.77;;;;;;;3.48;99.26;101816.94;5027314;28;20053;-82
2021/04/18 06:07:37;;;;;;;39.25;27.88;;;;;;;3.53;100.00;101808.69;5054236;28;20036;-83
2021/04/18 06:10:06;;;;;;;44.80;28.42;;;;;;;3.60;99.10;101812.69;5049219;28;20041;-82
2021/04/18 06:12:31;;;;;;;40.30;26.77;;;;;;;3.71;98.14;101822.63;5034682;28;20029;-83
2021/04/18 06:14:57;;;;;;;39.38;26.45;;;;;;;3.76;98.71;101829.34;5050592;28;20424;-80
2021/04/18 06:17:23;;;;;;;40.55;26.23;;;;;;;3.82;99.10;101825.47;5031214;28;20080;-81
2021/04/18 06:19:49;;;;;;;40.97;27.48;;;;;;;3.83;98.96;101824.53;5046064;28;20056;-80
2021/04/18 06:22:14;;;;;;;38.97;26.65;;;;;;;3.91;98.81;101826.69;5030778;28;20044;-82
2021/04/18 06:24:39;;;;;;;45.33;27.30;;;;;;;4.00;98.68;101832.31;5034160;28;20052;-83
2021/04/18 06:27:06;;;;;;;39.33;26.90;;;;;;;4.05;97.77;101829.34;5037039;28;20036;-77
2021/04/18 06:29:31;;;;;;;36.92;25.33;;;;;;;4.13;97.65;101823.53;5051988;28;20118;-80
2021/04/18 06:31:56;;;;;;;38.25;24.25;;;;;;;4.12;98.13;101822.69;5043076;28;20045;-80
2021/04/18 06:34:23;;;;;;;46.20;25.95;;;;;;;4.16;97.49;101832.16;5031293;28;20065;-82
2021/04/18 06:36:50;;;;;;;37.40;24.08;;;;;;;4.18;97.98;101822.31;5025978;28;20045;-79
2021/04/18 06:39:17;;;;;;;34.90;24.50;;;;;;;4.28;98.23;101823.41;5045272;28;20153;-80
2021/04/18 06:41:52;;;;;;;35.67;24.35;;;;;;;4.35;97.34;101825.69;5043005;28;20053;-79
2021/04/18 06:44:18;;;;;;;37.00;23.38;;;;;;;4.38;97.01;101831.66;5050080;28;20049;-82
2021/04/18 06:46:43;;;;;;;34.50;23.75;;;;;;;4.44;97.35;101827.75;5034099;28;20052;-81
2021/04/18 06:49:09;;;;;;;37.45;24.63;;;;;;;4.57;96.49;101825.13;5050165;28;20033;-82
2021/04/18 06:51:38;;;;;;;36.60;23.90;;;;;;;4.61;96.68;101819.53;5031765;28;20044;-82
2021/04/18 06:54:04;;;;;;;;;;;;;;;4.63;96.00;101817.63;5049871;28;20045;-77
2021/04/18 06:56:30;;;;;;;38.55;24.85;;;;;;;4.57;96.87;101827.78;5036393;28;19924;-79
2021/04/18 06:58:59;;;;;;;37.83;24.33;;;;;;;4.57;96.88;101823.31;5017597;28;20428;-80
2021/04/18 07:01:25;;;;;;;36.13;24.08;;;;;;;4.69;96.54;101824.31;5031972;28;20501;-84
2021/04/18 07:04:12;;;;;;;37.03;24.63;;;;;;;4.70;96.64;101824.25;5039755;28;20056;-78
2021/04/18 07:06:45;;;;;;;36.17;24.15;;;;;;;4.72;99.15;101825.00;5029873;28;20448;-81
2021/04/18 07:09:11;;;;;;;36.08;23.77;;;;;;;4.76;95.91;101815.00;5047229;28;20090;-83
2021/04/18 07:11:55;;;;;;;34.25;24.05;;;;;;;4.84;96.30;101820.66;5045469;28;20048;-82
2021/04/18 07:14:29;;;;;;;37.10;23.52;;;;;;;4.89;95.27;101818.56;4997404;28;20485;-81
2021/04/18 07:17:08;;;;;;;34.30;24.27;;;;;;;4.89;97.20;101815.91;5008420;28;20041;-78
2021/04/18 07:19:40;;;;;;;36.08;23.58;;;;;;;5.04;95.51;101823.81;5016395;28;20029;-82
2021/04/18 07:22:06;;;;;;;34.72;23.27;;;;;;;5.11;95.07;101828.59;5031353;28;20042;-81
2021/04/18 07:24:46;;;;;;;35.60;22.42;;;;;;;5.06;97.34;101825.38;5025620;28;20788;-81
2021/04/18 07:27:12;;;;;;;38.65;24.10;;;;;;;5.13;95.19;101821.38;5017576;28;20068;-79
2021/04/18 07:29:38;;;;;;;37.55;24.20;;;;;;;5.15;96.34;101827.44;5030411;28;20115;-83
2021/04/18 07:32:18;;;;;;;34.88;24.30;;;;;;;5.24;97.25;101830.44;5015527;28;20447;-80
2021/04/18 07:34:43;;;;;;;38.85;24.95;;;;;;;5.20;95.85;101822.66;5032512;28;20118;-84
2021/04/18 07:37:11;;;;;;;37.70;24.38;;;;;;;5.29;96.17;101822.97;5021471;28;20095;-77
2021/04/18 07:39:48;;;;;;;34.25;25.65;;;;;;;5.43;96.42;101820.22;5042759;28;20048;-82
2021/04/18 07:42:37;;;;;;;35.53;23.80;;;;;;;5.46;95.64;101812.03;5031193;28;20249;-78
2021/04/18 07:45:12;;;;;;;34.42;21.77;;;;;;;5.54;95.37;101815.00;5013316;28;20045;-82
2021/04/18 07:47:40;;;;;;;33.85;23.52;;;;;;;5.61;95.81;101815.44;5037298;28;20057;-80
2021/04/18 07:50:12;;;;;;;32.03;22.73;;;;;;;5.66;94.44;101808.81;5042237;28;20052;-80
2021/04/18 07:52:44;;;;;;;32.20;21.65;;;;;;;5.73;94.34;101809.25;5024640;28;20444;-81
2021/04/18 07:55:12;;;;;;;32.75;23.08;;;;;;;5.74;94.86;101805.63;5046715;28;20041;-79
2021/04/18 07:57:37;;;;;;;32.28;22.88;;;;;;;5.79;93.75;101800.84;5026954;28;20053;-81
2021/04/18 08:00:04;;;;;;;35.90;23.30;;;;;;;5.87;93.78;101810.97;5028088;28;20099;-83
2021/04/18 08:02:30;;;;;;;34.35;23.25;;;;;;;5.94;92.96;101795.41;5031030;28;20049;-81
2021/04/18 08:04:56;;;;;;;34.22;22.00;;;;;;;5.96;94.21;101794.34;5029579;28;20040;-81
2021/04/18 08:07:23;;;;;;;33.65;22.08;;;;;;;6.19;94.92;101787.34;5029317;28;20080;-82
2021/04/18 08:10:24;;;;;;;31.50;19.85;;;;;;;6.39;94.72;101780.56;5026186;28;20431;-79
2021/04/18 08:13:01;;;;;;;30.63;18.77;;;;;;;6.59;94.57;101772.88;5028057;28;20052;-80
2021/04/18 08:15:27;;;;;;;28.80;18.77;;;;;;;6.72;92.71;101782.53;4998228;28;20045;-84
2021/04/18 08:18:15;;;;;;;35.58;20.05;;;;;;;6.77;91.35;101782.19;5037821;28;20397;-79
2021/04/18 08:20:46;;;;;;;28.17;20.23;;;;;;;6.90;92.27;101776.75;5030961;28;20052;-78
2021/04/18 08:23:14;;;;;;;25.80;18.52;;;;;;;6.98;91.08;101780.56;4981422;28;20037;-84
2021/04/18 08:26:04;;;;;;;27.08;19.55;;;;;;;7.09;90.75;101778.91;5030002;28;20037;-81
2021/04/18 08:28:32;;;;;;;24.92;18.33;;;;;;;7.10;90.26;101776.09;5011187;28;20573;-82
2021/04/18 08:31:08;;;;;;;26.50;18.40;;;;;;;7.16;90.01;101775.66;5043747;28;20500;-77
2021/04/18 08:33:45;;;;;;;25.20;17.42;;;;;;;7.31;89.75;101784.28;5050303;28;20127;-79
2021/04/18 08:36:19;;;;;;;25.83;17.65;;;;;;;7.36;90.28;101781.25;5051153;28;20029;-82
2021/04/18 08:39:00;;;;;;;31.10;18.90;;;;;;;7.55;89.04;101780.66;5047778;28;20041;-80
2021/04/18 08:41:42;;;;;;;27.02;18.35;;;;;;;7.73;88.70;101781.03;5029633;28;20451;-79
2021/04/18 08:44:39;;;;;;;25.02;16.80;;;;;;;7.78;87.32;101795.72;5047839;28;20052;-82
2021/04/18 08:47:09;;;;;;;24.13;16.63;;;;;;;7.92;88.33;101783.94;5007729;28;20075;-80
2021/04/18 08:49:38;;;;;;;;;;;;;;;8.23;86.54;101771.63;5046783;28;20037;-79
2021/04/18 08:52:07;;;;;;;21.90;13.38;;;;;;;8.31;81.12;101770.97;5039638;28;20004;-80
2021/04/18 08:54:37;;;;;;;21.85;13.32;;;;;;;8.50;80.99;101773.03;5024851;28;20165;-80
2021/04/18 08:57:11;;;;;;;21.52;14.07;;;;;;;8.53;79.05;101775.47;5046423;28;20049;-83
2021/04/18 08:59:38;;;;;;;20.80;14.60;;;;;;;8.54;79.42;101775.31;5047110;28;20592;-83
2021/04/18 09:02:08;;;;;;;24.20;13.93;;;;;;;8.61;79.64;101777.50;5028392;28;20040;-78
2021/04/18 09:04:37;;;;;;;27.15;15.02;;;;;;;8.64;79.26;101783.44;5040662;28;20045;-81
2021/04/18 09:07:04;;;;;;;22.60;14.63;;;;;;;8.65;79.47;101782.47;5040216;28;20091;-81
2021/04/18 09:09:31;;;;;;;22.20;14.30;;;;;;;8.75;80.02;101788.75;5041235;28;20128;-84
2021/04/18 09:11:58;;;;;;;21.08;13.32;;;;;;;8.95;77.93;101789.75;5046808;28;20029;-81
2021/04/18 09:14:24;;;;;;;22.25;13.15;;;;;;;9.12;76.58;101788.34;5042102;28;20069;-78
2021/04/18 09:16:51;;;;;;;19.98;11.38;;;;;;;9.25;76.39;101786.28;5030826;28;20040;-78
2021/04/18 09:19:29;;;;;;;18.80;11.52;;;;;;;9.38;75.46;101782.56;5029492;28;20049;-83
2021/04/18 09:21:58;;;;;;;17.05;11.73;;;;;;;9.54;74.59;101780.25;5045720;28;20048;-82
2021/04/18 09:24:24;;;;;;;17.55;11.38;;;;;;;9.73;74.29;101782.19;5028142;28;20045;-81
2021/04/18 09:27:02;;;;;;;22.67;11.32;;;;;;;9.68;73.18;101782.56;5044245;28;20083;-81
2021/04/18 09:29:28;;;;;;;16.17;11.27;;;;;;;9.87;73.56;101783.66;5017926;28;20045;-81
2021/04/18 09:32:03;;;;;;;18.67;11.77;;;;;;;9.97;71.79;101771.13;5023708;28;20033;-80
2021/04/18 09:34:28;;;;;;;13.93;9.70;;;;;;;10.17;71.93;101767.50;5041402;28;20520;-82
2021/04/18 09:36:57;;;;;;;16.42;11.00;;;;;;;10.29;70.56;101772.78;5047124;28;20041;-80
2021/04/18 09:39:28;;;;;;;19.50;12.23;;;;;;;10.46;70.71;101771.25;5047741;28;20501;-82
2021/04/18 09:41:54;;;;;;;15.73;11.02;;;;;;;10.77;70.25;101770.13;5025753;28;20049;-81
2021/04/18 09:44:30;;;;;;;15.65;9.43;;;;;;;10.81;67.85;101763.47;5030707;28;20551;-82
2021/04/18 09:46:59;;;;;;;18.33;10.60;;;;;;;10.97;67.41;101762.91;5032575;28;20095;-80
2021/04/18 09:49:25;;;;;;;16.27;10.20;;;;;;;11.11;66.44;101763.47;5051088;28;20521;-82
2021/04/18 09:52:09;;;;;;;17.15;9.20;;;;;;;11.11;65.80;101750.03;5031084;28;20056;-81
2021/04/18 09:54:35;;;;;;;16.35;8.77;;;;;;;11.11;66.47;101764.31;5024512;28;20068;-81
2021/04/18 09:57:18;;;;;;;11.25;8.77;;;;;;;11.23;66.70;101756.94;5015510;28;20514;-82
2021/04/18 09:59:44;;;;;;;17.65;10.13;;;;;;;11.39;66.11;101748.25;5053864;28;20597;-80
2021/04/18 10:02:12;;;;;;;13.65;9.07;;;;;;;11.44;65.55;101752.19;5048140;28;20064;-81
2021/04/18 10:04:37;;;;;;;16.17;8.48;;;;;;;11.49;65.84;101754.44;5049003;28;20106;-82
2021/04/18 10:07:03;;;;;;;15.43;9.60;;;;;;;11.61;66.00;101750.56;5047897;28;20033;-84
2021/04/18 10:09:51;;;;;;;14.70;9.77;;;;;;;11.64;65.68;101747.59;5042349;28;20615;-78
2021/04/18 10:12:16;;;;;;;15.93;8.95;;;;;;;11.64;65.01;101744.06;5030869;28;20069;-81
2021/04/18 10:14:43;;;;;;;15.10;9.38;;;;;;;11.72;65.13;101749.56;5028894;28;20134;-80
2021/04/18 10:17:11;;;;;;;13.43;9.88;;;;;;;11.79;65.75;101750.63;5042657;28;20626;-83
2021/04/18 10:19:50;;;;;;;15.63;9.77;;;;;;;11.72;65.48;101744.19;5027409;28;20041;-80
2021/04/18 10:22:15;;;;;;;;;;;;;;;11.80;65.37;101740.75;5025816;28;20049;-79
2021/04/18 10:24:48;;;;;;;15.52;9.57;;;;;;;11.77;66.17;101747.28;5017945;28;19928;-82
2021/04/18 10:27:15;;;;;;;15.25;10.90;;;;;;;11.72;66.55;101749.56;5048718;28;20128;-83
2021/04/18 10:29:42;;;;;;;13.93;10.07;;;;;;;11.81;66.92;101740.59;5035775;28;20124;-79
2021/04/18 10:32:08;;;;;;;12.27;8.75;;;;;;;12.21;66.06;101731.31;5049137;28;20040;-84
2021/04/18 10:34:34;;;;;;;15.85;9.77;;;;;;;12.33;65.18;101724.72;5048348;28;20044;-81
2021/04/18 10:37:00;;;;;;;15.52;9.82;;;;;;;12.41;64.42;101727.50;5031764;28;20669;-81
2021/04/18 10:39:27;;;;;;;16.23;8.80;;;;;;;12.49;64.12;101728.59;5034184;28;20056;-79
2021/04/18 10:41:52;;;;;;;14.57;8.70;;;;;;;12.55;63.98;101727.97;5031690;28;20041;-79
2021/04/18 10:44:18;;;;;;;11.75;8.23;;;;;;;12.66;63.47;101730.41;5050368;28;20051;-82
2021/04/18 10:46:58;;;;;;;12.43;7.97;;;;;;;12.69;61.57;101730.09;5031528;28;20060;-83
2021/04/18 10:49:26;;;;;;;14.05;7.53;;;;;;;12.73;61.97;101722.56;5030460;28;20040;-82
2021/04/18 10:51:52;;;;;;;11.80;8.27;;;;;;;12.77;61.83;101719.38;5045494;28;20088;-81
2021/04/18 10:54:18;;;;;;;12.25;7.70;;;;;;;12.83;61.60;101718.78;5046412;28;20041;-80
2021/04/18 10:56:50;;;;;;;12.68;8.50;;;;;;;12.91;61.37;101719.81;5043600;28;20056;-81
2021/04/18 10:59:16;;;;;;;12.82;7.78;;;;;;;12.71;60.57;101714.63;5027827;28;20099;-79
2021/04/18 11:01:42;;;;;;;13.18;7.65;;;;;;;12.76;60.77;101708.78;5031028;28;20545;-86
2021/04/18 11:04:07;;;;;;;10.70;6.97;;;;;;;13.02;60.86;101714.19;5028517;28;20055;-84
2021/04/18 11:06:33;;;;;;;10.00;7.38;;;;;;;12.94;59.97;101709.56;5044113;28;20039;-84
2021/04/18 11:08:59;;;;;;;11.50;7.28;;;;;;;12.60;60.03;101704.97;5044368;28;20037;-78
2021/04/18 11:11:25;;;;;;;15.25;7.75;;;;;;;12.79;62.07;101701.22;4992026;28;20079;-84
2021/04/18 11:13:51;;;;;;;10.77;6.88;;;;;;;12.92;61.10;101705.34;5032553;28;20041;-81
2021/04/18 11:16:17;;;;;;;11.23;7.43;;;;;;;12.97;60.73;101700.34;5028650;28;20051;-83
2021/04/18 11:18:43;;;;;;;10.48;7.28;;;;;;;12.92;60.50;101695.44;5049216;28;20112;-79
2021/04/18 11:21:09;;;;;;;11.82;7.65;;;;;;;12.82;60.21;101690.13;5033936;28;20187;-80
2021/04/18 11:23:35;;;;;;;11.73;7.25;;;;;;;12.93;61.19;101685.50;5041755;28;20057;-81
2021/04/18 11:26:01;;;;;;;12.57;7.22;;;;;;;13.08;60.26;101689.31;5040123;28;20061;-81